createdAt,value
2023-02-16T00:01:59.022Z,97982.00
2023-02-16T00:04:30.166Z,97981.00
2023-02-16T00:06:57.566Z,97986.00
2023-02-16T00:09:25.020Z,97978.00
2023-02-16T00:12:12.583Z,97973.00
2023-02-16T00:14:40.333Z,97973.00
2023-02-16T00:17:10.989Z,97973.00
2023-02-16T00:19:41.957Z,97975.00
2023-02-16T00:22:11.100Z,97984.00
2023-02-16T00:24:37.919Z,97985.00
2023-02-16T00:27:13.968Z,97983.00
2023-02-16T00:29:40.865Z,97982.00
2023-02-16T00:32:12.586Z,97975.00
2023-02-16T00:34:43.123Z,97981.00
2023-02-16T00:37:13.311Z,97981.00
2023-02-16T00:39:43.042Z,97975.00
2023-02-16T00:42:29.842Z,97967.00
2023-02-16T00:44:58.716Z,97961.00
2023-02-16T00:47:41.705Z,97969.00
2023-02-16T00:50:27.411Z,97970.00
2023-02-16T00:52:54.699Z,97970.00
2023-02-16T00:55:28.631Z,97969.00
2023-02-16T00:58:17.441Z,97965.00
2023-02-16T01:00:52.547Z,97975.00
2023-02-16T01:03:25.306Z,97966.00
2023-02-16T01:06:13.463Z,97967.00
2023-02-16T01:08:59.240Z,97961.00
2023-02-16T01:11:26.679Z,97961.00
2023-02-16T01:13:55.173Z,97965.00
2023-02-16T01:16:26.475Z,97964.00
2023-02-16T01:18:53.988Z,97966.00
2023-02-16T01:21:21.929Z,97962.00
2023-02-16T01:23:49.126Z,97972.00
2023-02-16T01:26:19.102Z,97968.00
2023-02-16T01:28:46.797Z,97968.00
2023-02-16T01:31:14.944Z,97968.00
2023-02-16T01:33:42.844Z,97971.00
2023-02-16T01:36:33.619Z,97976.00
2023-02-16T01:39:01.636Z,97968.00
2023-02-16T01:42:19.791Z,97962.00
2023-02-16T01:44:56.610Z,97952.00
2023-02-16T01:47:29.908Z,97963.00
2023-02-16T01:49:56.849Z,97959.00
2023-02-16T01:52:34.711Z,97959.00
2023-02-16T01:55:38.123Z,97967.00
2023-02-16T01:58:46.095Z,97960.00
2023-02-16T02:01:39.331Z,97964.00
2023-02-16T02:04:41.495Z,97967.00
2023-02-16T02:07:13.292Z,97964.00
2023-02-16T02:09:51.811Z,97960.00
2023-02-16T02:12:39.857Z,97963.00
2023-02-16T02:15:09.146Z,97959.00
2023-02-16T02:17:37.355Z,97951.00
2023-02-16T02:20:45.831Z,97942.00
2023-02-16T02:23:40.435Z,97942.00
2023-02-16T02:26:47.681Z,97949.00
2023-02-16T02:29:48.127Z,97955.00
2023-02-16T02:32:38.484Z,97960.00
2023-02-16T02:35:29.303Z,97961.00
2023-02-16T02:38:12.607Z,97956.00
2023-02-16T02:41:15.672Z,97951.00
2023-02-16T02:43:56.903Z,97948.00
2023-02-16T02:46:32.405Z,97950.00
2023-02-16T02:48:59.215Z,97949.00
2023-02-16T02:51:29.225Z,97950.00
2023-02-16T02:54:31.568Z,97956.00
2023-02-16T02:57:26.167Z,97949.00
2023-02-16T03:00:29.758Z,97946.00
2023-02-16T03:03:09.138Z,97942.00
2023-02-16T03:05:38.472Z,97945.00
2023-02-16T03:08:15.113Z,97942.00
2023-02-16T03:11:06.780Z,97938.00
2023-02-16T03:13:45.870Z,97939.00
2023-02-16T03:16:19.047Z,97936.00
2023-02-16T03:19:06.298Z,97934.00
2023-02-16T03:21:54.187Z,97933.00
2023-02-16T03:24:47.510Z,97939.00
2023-02-16T03:27:50.292Z,97948.00
2023-02-16T03:30:18.869Z,97951.00
2023-02-16T03:32:47.431Z,97954.00
2023-02-16T03:35:14.590Z,97952.00
2023-02-16T03:37:43.761Z,97950.00
2023-02-16T03:40:30.003Z,97942.00
2023-02-16T03:43:03.323Z,97941.00
2023-02-16T03:45:32.260Z,97944.00
2023-02-16T03:47:59.090Z,97942.00
2023-02-16T03:50:27.115Z,97943.00
2023-02-16T03:53:06.547Z,97942.00
2023-02-16T03:55:44.240Z,97953.00
2023-02-16T03:58:16.325Z,97943.00
2023-02-16T04:00:43.191Z,97954.00
2023-02-16T04:03:10.419Z,97943.00
2023-02-16T04:05:38.616Z,97941.00
2023-02-16T04:08:06.469Z,97948.00
2023-02-16T04:10:34.821Z,97948.00
2023-02-16T04:13:01.591Z,97959.00
2023-02-16T04:15:30.449Z,97957.00
2023-02-16T04:17:57.322Z,97959.00
2023-02-16T04:20:28.134Z,97961.00
2023-02-16T04:22:55.443Z,97955.00
2023-02-16T04:25:22.445Z,97961.00
2023-02-16T04:27:50.151Z,97958.00
2023-02-16T04:30:30.155Z,97960.00
2023-02-16T04:32:58.803Z,97962.00
2023-02-16T04:35:25.643Z,97961.00
2023-02-16T04:37:52.439Z,97965.00
2023-02-16T04:40:19.499Z,97970.00
2023-02-16T04:42:46.407Z,97976.00
2023-02-16T04:45:14.081Z,97973.00
2023-02-16T04:47:41.351Z,97977.00
2023-02-16T04:50:08.981Z,97972.00
2023-02-16T04:52:36.887Z,97967.00
2023-02-16T04:55:05.608Z,97976.00
2023-02-16T04:57:32.499Z,97985.00
2023-02-16T04:59:59.294Z,97974.00
2023-02-16T05:02:26.167Z,97969.00
2023-02-16T05:04:53.038Z,97969.00
2023-02-16T05:07:19.865Z,97970.00
2023-02-16T05:09:46.710Z,97969.00
2023-02-16T05:12:31.963Z,97973.00
2023-02-16T05:14:58.734Z,97973.00
2023-02-16T05:17:26.943Z,97976.00
2023-02-16T05:19:59.949Z,97968.00
2023-02-16T05:22:33.535Z,97964.00
2023-02-16T05:25:03.512Z,97963.00
2023-02-16T05:27:31.082Z,97971.00
2023-02-16T05:29:58.727Z,97968.00
2023-02-16T05:32:26.087Z,97976.00
2023-02-16T05:34:52.898Z,97973.00
2023-02-16T05:37:19.796Z,97977.00
2023-02-16T05:39:46.742Z,97978.00
2023-02-16T05:42:13.740Z,97977.00
2023-02-16T05:44:40.671Z,97975.00
2023-02-16T05:47:07.592Z,97982.00
2023-02-16T05:49:34.565Z,97986.00
2023-02-16T05:52:02.075Z,97979.00
2023-02-16T05:54:28.942Z,97986.00
2023-02-16T05:56:55.988Z,97991.00
2023-02-16T05:59:23.114Z,97985.00
2023-02-16T06:01:52.149Z,97985.00
2023-02-16T06:04:20.218Z,97987.00
2023-02-16T06:06:47.158Z,97993.00
2023-02-16T06:09:13.931Z,97998.00
2023-02-16T06:11:40.664Z,98000.00
2023-02-16T06:14:15.006Z,98000.00
2023-02-16T06:16:44.483Z,98003.00
2023-02-16T06:19:12.190Z,98003.00
2023-02-16T06:21:40.184Z,98009.00
2023-02-16T06:24:08.667Z,98005.00
2023-02-16T06:26:36.005Z,98009.00
2023-02-16T06:29:04.875Z,98010.00
2023-02-16T06:31:33.248Z,98017.00
2023-02-16T06:34:03.760Z,98013.00
2023-02-16T06:36:31.142Z,98014.00
2023-02-16T06:38:57.979Z,98010.00
2023-02-16T06:41:40.090Z,98003.00
2023-02-16T06:44:12.226Z,98013.00
2023-02-16T06:46:40.830Z,98007.00
2023-02-16T06:49:07.728Z,98014.00
2023-02-16T06:51:34.536Z,98002.00
2023-02-16T06:54:01.321Z,98007.00
2023-02-16T06:56:28.137Z,98006.00
2023-02-16T06:58:54.902Z,98011.00
2023-02-16T07:01:26.015Z,98013.00
2023-02-16T07:03:55.395Z,98021.00
2023-02-16T07:06:24.418Z,98025.00
2023-02-16T07:08:52.584Z,98026.00
2023-02-16T07:11:20.225Z,98024.00
2023-02-16T07:13:47.379Z,98032.00
2023-02-16T07:16:15.399Z,98022.00
2023-02-16T07:18:42.611Z,98035.00
2023-02-16T07:21:09.495Z,98029.00
2023-02-16T07:23:36.298Z,98035.00
2023-02-16T07:26:03.254Z,98042.00
2023-02-16T07:28:30.156Z,98051.00
2023-02-16T07:30:56.960Z,98051.00
2023-02-16T07:33:23.773Z,98048.00
2023-02-16T07:35:50.584Z,98046.00
2023-02-16T07:38:17.395Z,98053.00
2023-02-16T07:40:44.218Z,98054.00
2023-02-16T07:43:10.993Z,98047.00
2023-02-16T07:45:37.882Z,98059.00
2023-02-16T07:48:05.045Z,98054.00
2023-02-16T07:50:31.831Z,98051.00
2023-02-16T07:53:03.523Z,98054.00
2023-02-16T07:55:30.558Z,98055.00
2023-02-16T07:57:57.392Z,98057.00
2023-02-16T08:00:24.240Z,98060.00
2023-02-16T08:02:51.109Z,98046.00
2023-02-16T08:05:18.612Z,98048.00
2023-02-16T08:07:46.767Z,98044.00
2023-02-16T08:10:15.625Z,98052.00
2023-02-16T08:12:43.078Z,98046.00
2023-02-16T08:15:10.707Z,98056.00
2023-02-16T08:17:37.940Z,98050.00
2023-02-16T08:20:08.133Z,98056.00
2023-02-16T08:22:36.021Z,98038.00
2023-02-16T08:25:03.548Z,98040.00
2023-02-16T08:27:31.267Z,98038.00
2023-02-16T08:29:58.082Z,98047.00
2023-02-16T08:32:25.389Z,98046.00
2023-02-16T08:34:52.320Z,98042.00
2023-02-16T08:37:19.096Z,98038.00
2023-02-16T08:39:46.720Z,98042.00
2023-02-16T08:42:13.542Z,98037.00
2023-02-16T08:44:42.167Z,98039.00
2023-02-16T08:47:09.454Z,98043.00
2023-02-16T08:49:36.487Z,98046.00
2023-02-16T08:52:04.135Z,98052.00
2023-02-16T08:54:33.297Z,98057.00
2023-02-16T08:57:02.750Z,98055.00
2023-02-16T08:59:30.351Z,98047.00
2023-02-16T09:01:59.219Z,98055.00
2023-02-16T09:04:29.489Z,98061.00
2023-02-16T09:06:58.297Z,98053.00
2023-02-16T09:09:26.471Z,98074.00
2023-02-16T09:11:53.522Z,98068.00
2023-02-16T09:14:21.562Z,98063.00
2023-02-16T09:16:48.694Z,98062.00
2023-02-16T09:19:19.674Z,98062.00
2023-02-16T09:21:48.323Z,98067.00
2023-02-16T09:24:15.979Z,98062.00
2023-02-16T09:26:43.077Z,98071.00
2023-02-16T09:29:12.547Z,98063.00
2023-02-16T09:31:40.150Z,98067.00
2023-02-16T09:34:20.923Z,98065.00
2023-02-16T09:36:48.674Z,98073.00
2023-02-16T09:39:17.051Z,98060.00
2023-02-16T09:42:11.000Z,98065.00
2023-02-16T09:45:09.807Z,98045.00
2023-02-16T09:47:40.411Z,98054.00
2023-02-16T09:50:50.200Z,98062.00
2023-02-16T09:53:29.822Z,98075.00
2023-02-16T09:56:18.466Z,98078.00
2023-02-16T09:59:10.785Z,98062.00
2023-02-16T10:02:23.372Z,98058.00
2023-02-16T10:05:04.502Z,98075.00
2023-02-16T10:08:06.924Z,98062.00
2023-02-16T10:10:58.368Z,98059.00
2023-02-16T10:13:47.105Z,98063.00
2023-02-16T10:16:24.880Z,98057.00
2023-02-16T10:18:53.897Z,98062.00
2023-02-16T10:21:26.880Z,98051.00
2023-02-16T10:24:05.139Z,98052.00
2023-02-16T10:26:38.665Z,98050.00
2023-02-16T10:29:17.072Z,98058.00
2023-02-16T10:31:48.332Z,98049.00
2023-02-16T10:34:33.258Z,98055.00
2023-02-16T10:37:45.722Z,98048.00
2023-02-16T10:40:23.081Z,98060.00
2023-02-16T10:43:20.535Z,98052.00
2023-02-16T10:45:52.735Z,98046.00
2023-02-16T10:48:21.573Z,98030.00
2023-02-16T10:51:04.694Z,98040.00
2023-02-16T10:53:31.578Z,98037.00
2023-02-16T10:55:59.577Z,98029.00
2023-02-16T10:58:39.209Z,98038.00
2023-02-16T11:01:15.911Z,98022.00
2023-02-16T11:03:49.654Z,98029.00
2023-02-16T11:06:20.430Z,98023.00
2023-02-16T11:09:06.661Z,98030.00
2023-02-16T11:11:42.559Z,98035.00
2023-02-16T11:14:24.599Z,98016.00
2023-02-16T11:17:13.462Z,98024.00
2023-02-16T11:19:50.896Z,98026.00
2023-02-16T11:22:39.666Z,98002.00
2023-02-16T11:25:20.566Z,98006.00
2023-02-16T11:28:01.923Z,97997.00
2023-02-16T11:30:32.572Z,97997.00
2023-02-16T11:33:22.316Z,97999.00
2023-02-16T11:35:49.527Z,97990.00
2023-02-16T11:38:36.976Z,97983.00
2023-02-16T11:41:07.120Z,97994.00
2023-02-16T11:43:38.287Z,97980.00
2023-02-16T11:46:17.641Z,97988.00
2023-02-16T11:48:46.252Z,97980.00
2023-02-16T11:51:16.390Z,97982.00
2023-02-16T11:53:45.992Z,97986.00
2023-02-16T11:56:29.540Z,97975.00
2023-02-16T11:59:20.867Z,97976.00
2023-02-16T12:02:40.576Z,97969.00
2023-02-16T12:05:28.729Z,97969.00
2023-02-16T12:08:24.853Z,97967.00
2023-02-16T12:11:25.407Z,97967.00
2023-02-16T12:14:13.482Z,97963.00
2023-02-16T12:17:27.745Z,97953.00
2023-02-16T12:20:05.350Z,97952.00
2023-02-16T12:22:44.274Z,97965.00
2023-02-16T12:25:38.293Z,97950.00
2023-02-16T12:28:30.551Z,97951.00
2023-02-16T12:31:31.253Z,97951.00
2023-02-16T12:34:25.507Z,97943.00
2023-02-16T12:37:25.510Z,97951.00
2023-02-16T12:40:29.090Z,97946.00
2023-02-16T12:43:37.991Z,97944.00
2023-02-16T12:46:24.389Z,97942.00
2023-02-16T12:48:58.857Z,97944.00
2023-02-16T12:51:41.384Z,97943.00
2023-02-16T12:54:15.136Z,97939.00
2023-02-16T12:57:21.653Z,97932.00
2023-02-16T12:59:59.461Z,97934.00
2023-02-16T13:02:44.478Z,97937.00
2023-02-16T13:05:18.699Z,97949.00
2023-02-16T13:07:50.201Z,97938.00
2023-02-16T13:10:35.399Z,97934.00
2023-02-16T13:13:13.318Z,97910.00
2023-02-16T13:15:47.559Z,97920.00
2023-02-16T13:18:30.329Z,97917.00
2023-02-16T13:21:24.900Z,97909.00
2023-02-16T13:24:26.770Z,97908.00
2023-02-16T13:27:18.171Z,97892.00
2023-02-16T13:29:52.592Z,97900.00
2023-02-16T13:32:54.621Z,97903.00
2023-02-16T13:35:58.536Z,97901.00
2023-02-16T13:39:12.987Z,97898.00
2023-02-16T13:42:33.820Z,97909.00
2023-02-16T13:45:10.168Z,97903.00
2023-02-16T13:47:42.013Z,97906.00
2023-02-16T13:50:28.276Z,97915.00
2023-02-16T13:52:58.529Z,97906.00
2023-02-16T13:55:37.408Z,97905.00
2023-02-16T13:58:07.212Z,97907.00
2023-02-16T14:00:38.736Z,97914.00
2023-02-16T14:03:37.548Z,97914.00
2023-02-16T14:06:26.925Z,97905.00
2023-02-16T14:09:12.229Z,97909.00
2023-02-16T14:11:52.840Z,97895.00
2023-02-16T14:14:41.259Z,97907.00
2023-02-16T14:17:20.467Z,97901.00
2023-02-16T14:20:08.867Z,97905.00
2023-02-16T14:22:53.399Z,97892.00
2023-02-16T14:25:20.484Z,97888.00
2023-02-16T14:27:54.149Z,97902.00
2023-02-16T14:30:37.228Z,97895.00
2023-02-16T14:33:27.316Z,97903.00
2023-02-16T14:36:00.100Z,97906.00
2023-02-16T14:38:33.312Z,97909.00
2023-02-16T14:41:02.227Z,97901.00
2023-02-16T14:43:48.524Z,97903.00
2023-02-16T14:46:36.334Z,97905.00
2023-02-16T14:49:35.857Z,97912.00
2023-02-16T14:52:39.009Z,97912.00
2023-02-16T14:55:51.351Z,97905.00
2023-02-16T14:58:55.854Z,97902.00
2023-02-16T15:01:24.075Z,97900.00
2023-02-16T15:03:54.611Z,97892.00
2023-02-16T15:06:43.732Z,97902.00
2023-02-16T15:09:32.249Z,97897.00
2023-02-16T15:12:23.519Z,97900.00
2023-02-16T15:15:02.640Z,97897.00
2023-02-16T15:17:38.106Z,97886.00
2023-02-16T15:20:21.619Z,97891.00
2023-02-16T15:22:51.577Z,97876.00
2023-02-16T15:25:26.381Z,97871.00
2023-02-16T15:28:05.580Z,97880.00
2023-02-16T15:30:36.130Z,97887.00
2023-02-16T15:33:16.007Z,97876.00
2023-02-16T15:35:46.662Z,97868.00
2023-02-16T15:38:13.381Z,97857.00
2023-02-16T15:40:40.812Z,97867.00
2023-02-16T15:43:40.012Z,97870.00
2023-02-16T15:46:15.991Z,97869.00
2023-02-16T15:48:42.898Z,97875.00
2023-02-16T15:51:20.883Z,97876.00
2023-02-16T15:53:57.332Z,97865.00
2023-02-16T15:56:48.232Z,97866.00
2023-02-16T15:59:35.726Z,97861.00
2023-02-16T16:02:32.412Z,97874.00
2023-02-16T16:05:02.621Z,97862.00
2023-02-16T16:07:32.178Z,97881.00
2023-02-16T16:10:00.317Z,97877.00
2023-02-16T16:12:28.143Z,97869.00
2023-02-16T16:15:04.162Z,97871.00
2023-02-16T16:17:36.793Z,97870.00
2023-02-16T16:20:31.685Z,97873.00
2023-02-16T16:23:20.255Z,97875.00
2023-02-16T16:25:48.857Z,97860.00
2023-02-16T16:28:27.962Z,97851.00
2023-02-16T16:31:29.718Z,97858.00
2023-02-16T16:34:00.769Z,97863.00
2023-02-16T16:36:52.269Z,97857.00
2023-02-16T16:39:20.336Z,97856.00
2023-02-16T16:41:57.648Z,97868.00
2023-02-16T16:44:54.462Z,97864.00
2023-02-16T16:47:39.448Z,97868.00
2023-02-16T16:50:14.928Z,97867.00
2023-02-16T16:52:50.843Z,97869.00
2023-02-16T16:55:21.384Z,97870.00
2023-02-16T16:58:00.781Z,97857.00
2023-02-16T17:00:34.497Z,97862.00
2023-02-16T17:03:03.518Z,97859.00
2023-02-16T17:05:30.689Z,97855.00
2023-02-16T17:07:57.634Z,97862.00
2023-02-16T17:10:25.074Z,97855.00
2023-02-16T17:12:56.767Z,97857.00
2023-02-16T17:15:47.781Z,97867.00
2023-02-16T17:18:18.725Z,97862.00
2023-02-16T17:20:46.684Z,97862.00
2023-02-16T17:23:15.893Z,97858.00
2023-02-16T17:25:43.656Z,97859.00
2023-02-16T17:28:12.416Z,97873.00
2023-02-16T17:30:40.920Z,97876.00
2023-02-16T17:33:08.179Z,97876.00
2023-02-16T17:35:38.408Z,97877.00
2023-02-16T17:38:17.741Z,97884.00
2023-02-16T17:40:48.801Z,97894.00
2023-02-16T17:43:16.719Z,97893.00
2023-02-16T17:45:43.976Z,97895.00
2023-02-16T17:48:28.351Z,97902.00
2023-02-16T17:50:55.950Z,97909.00
2023-02-16T17:53:26.023Z,97916.00
2023-02-16T17:55:56.289Z,97915.00
2023-02-16T17:58:24.529Z,97920.00
2023-02-16T18:00:51.775Z,97914.00
2023-02-16T18:03:18.841Z,97907.00
2023-02-16T18:05:45.824Z,97911.00
2023-02-16T18:08:13.250Z,97900.00
2023-02-16T18:10:45.619Z,97913.00
2023-02-16T18:13:13.756Z,97894.00
2023-02-16T18:15:45.665Z,97900.00
2023-02-16T18:18:13.483Z,97897.00
2023-02-16T18:20:41.076Z,97893.00
2023-02-16T18:23:08.699Z,97902.00
2023-02-16T18:25:35.971Z,97901.00
2023-02-16T18:28:03.269Z,97904.00
2023-02-16T18:30:30.250Z,97903.00
2023-02-16T18:32:57.240Z,97909.00
2023-02-16T18:35:24.095Z,97916.00
2023-02-16T18:37:51.034Z,97912.00
2023-02-16T18:40:20.008Z,97918.00
2023-02-16T18:42:47.898Z,97917.00
2023-02-16T18:45:14.975Z,97925.00
2023-02-16T18:47:44.295Z,97921.00
2023-02-16T18:50:12.468Z,97915.00
2023-02-16T18:52:42.371Z,97919.00
2023-02-16T18:55:10.687Z,97929.00
2023-02-16T18:57:37.847Z,97932.00
2023-02-16T19:00:06.706Z,97927.00
2023-02-16T19:02:33.555Z,97922.00
2023-02-16T19:05:00.411Z,97932.00
2023-02-16T19:07:27.174Z,97928.00
2023-02-16T19:09:53.958Z,97937.00
2023-02-16T19:12:20.854Z,97938.00
2023-02-16T19:14:47.635Z,97934.00
2023-02-16T19:17:14.421Z,97934.00
2023-02-16T19:19:41.286Z,97935.00
2023-02-16T19:22:08.154Z,97929.00
2023-02-16T19:24:35.332Z,97939.00
2023-02-16T19:27:02.390Z,97935.00
2023-02-16T19:29:29.330Z,97932.00
2023-02-16T19:31:56.212Z,97948.00
2023-02-16T19:34:24.250Z,97934.00
2023-02-16T19:36:51.263Z,97934.00
2023-02-16T19:39:18.143Z,97937.00
2023-02-16T19:41:45.000Z,97944.00
2023-02-16T19:44:14.287Z,97947.00
2023-02-16T19:46:42.030Z,97953.00
2023-02-16T19:49:08.998Z,97945.00
2023-02-16T19:51:35.768Z,97950.00
2023-02-16T19:54:02.586Z,97947.00
2023-02-16T19:56:29.591Z,97953.00
2023-02-16T19:58:58.500Z,97939.00
2023-02-16T20:01:28.015Z,97945.00
2023-02-16T20:03:57.178Z,97948.00
2023-02-16T20:06:31.624Z,97944.00
2023-02-16T20:09:00.211Z,97944.00
2023-02-16T20:11:28.911Z,97941.00
2023-02-16T20:13:57.049Z,97941.00
2023-02-16T20:16:24.817Z,97937.00
2023-02-16T20:18:51.689Z,97941.00
2023-02-16T20:21:25.132Z,97936.00
2023-02-16T20:23:56.655Z,97940.00
2023-02-16T20:26:37.417Z,97942.00
2023-02-16T20:29:06.530Z,97936.00
2023-02-16T20:31:46.980Z,97941.00
2023-02-16T20:34:14.107Z,97935.00
2023-02-16T20:36:40.872Z,97939.00
2023-02-16T20:39:08.353Z,97948.00
2023-02-16T20:41:35.498Z,97938.00
2023-02-16T20:44:02.992Z,97946.00
2023-02-16T20:46:30.058Z,97947.00
2023-02-16T20:48:57.175Z,97941.00
2023-02-16T20:51:24.760Z,97943.00
2023-02-16T20:53:51.665Z,97949.00
2023-02-16T20:56:24.999Z,97953.00
2023-02-16T20:58:55.013Z,97951.00
2023-02-16T21:01:32.386Z,97946.00
2023-02-16T21:04:00.363Z,97945.00
2023-02-16T21:06:28.562Z,97952.00
2023-02-16T21:08:56.264Z,97953.00
2023-02-16T21:11:23.698Z,97957.00
2023-02-16T21:13:50.671Z,97944.00
2023-02-16T21:16:17.772Z,97944.00
2023-02-16T21:18:44.744Z,97942.00
2023-02-16T21:21:15.424Z,97945.00
2023-02-16T21:23:45.672Z,97950.00
2023-02-16T21:26:13.379Z,97934.00
2023-02-16T21:28:40.935Z,97929.00
2023-02-16T21:31:13.666Z,97933.00
2023-02-16T21:33:41.104Z,97922.00
2023-02-16T21:36:18.013Z,97934.00
2023-02-16T21:38:46.838Z,97918.00
2023-02-16T21:41:28.604Z,97925.00
2023-02-16T21:44:08.491Z,97928.00
2023-02-16T21:46:41.862Z,97929.00
2023-02-16T21:49:16.061Z,97927.00
2023-02-16T21:51:46.970Z,97922.00
2023-02-16T21:54:17.826Z,97926.00
2023-02-16T21:56:50.071Z,97917.00
2023-02-16T21:59:19.099Z,97913.00
2023-02-16T22:01:53.184Z,97910.00
2023-02-16T22:04:22.230Z,97915.00
2023-02-16T22:06:50.526Z,97912.00
2023-02-16T22:09:22.687Z,97930.00
2023-02-16T22:11:50.756Z,97917.00
2023-02-16T22:14:18.200Z,97918.00
2023-02-16T22:16:47.267Z,97911.00
2023-02-16T22:19:17.742Z,97912.00
2023-02-16T22:21:46.926Z,97908.00
2023-02-16T22:24:16.932Z,97909.00
2023-02-16T22:26:44.575Z,97912.00
2023-02-16T22:29:12.285Z,97908.00
2023-02-16T22:31:44.076Z,97909.00
2023-02-16T22:34:15.063Z,97908.00
2023-02-16T22:36:42.031Z,97913.00
2023-02-16T22:39:12.295Z,97915.00
2023-02-16T22:41:39.755Z,97914.00
2023-02-16T22:44:06.782Z,97916.00
2023-02-16T22:46:33.882Z,97917.00
2023-02-16T22:49:01.005Z,97907.00
2023-02-16T22:51:30.257Z,97918.00
2023-02-16T22:54:01.752Z,97920.00
2023-02-16T22:56:29.658Z,97922.00
2023-02-16T22:58:57.950Z,97920.00
2023-02-16T23:01:26.605Z,97921.00
2023-02-16T23:03:59.153Z,97909.00
2023-02-16T23:06:35.652Z,97918.00
2023-02-16T23:09:13.284Z,97918.00
2023-02-16T23:11:40.099Z,97916.00
2023-02-16T23:14:16.076Z,97918.00
2023-02-16T23:16:54.568Z,97908.00
2023-02-16T23:19:25.869Z,97917.00
2023-02-16T23:21:53.488Z,97917.00
2023-02-16T23:24:23.425Z,97923.00
2023-02-16T23:26:50.864Z,97916.00
2023-02-16T23:29:17.961Z,97917.00
2023-02-16T23:31:46.895Z,97914.00
2023-02-16T23:34:15.495Z,97912.00
2023-02-16T23:36:42.455Z,97910.00
2023-02-16T23:39:13.538Z,97911.00
2023-02-16T23:41:41.562Z,97900.00
2023-02-16T23:44:09.826Z,97914.00
2023-02-16T23:46:36.617Z,97918.00
2023-02-16T23:49:03.485Z,97908.00
2023-02-16T23:51:30.372Z,97910.00
2023-02-16T23:53:57.125Z,97905.00
2023-02-16T23:56:28.239Z,97916.00
2023-02-16T23:59:00.411Z,97914.00
